Flight Track Log - Related Links

Times and Time Zones

All times are in EST time to prevent confusion due to time zone crossing. See the CTL309 flight status page for this flight to view local times or setup timezone preferences in your user account.

Time Position Orientation Groundspeed Altitude Reporting Facility
EST Latitude Longitude Course Direction KTS MPH feet Rate Location/Type
Wed 04:44:20 AM 40.0472 -83.1194 217° Southwest 147 169 2,100  Level Indianapolis Center
Wed 04:44:26 AM 40.0425 -83.1242 217° Southwest 151 174 2,200 716 Climbing Indianapolis Center
Wed 04:45:27 AM 40.0006 -83.1447 201° Southwest 158 182 2,900 393 Climbing Indianapolis Center
Wed 04:46:28 AM 39.9586 -83.1678 203° Southwest 173 199 3,000 50 Climbing Indianapolis Center
Wed 04:47:28 AM 39.9119 -83.1931 203° Southwest 183 211 3,000  Level Indianapolis Center
Wed 04:48:29 AM 39.8656 -83.2153 200° South 179 206 3,000  Level Indianapolis Center
Wed 04:49:29 AM 39.8150 -83.2397 200° South 179 206 3,000  Level Indianapolis Center
Wed 04:50:30 AM 39.7683 -83.2647 202° Southwest 181 208 3,000  Level Indianapolis Center
Wed 04:52:31 AM 39.6758 -83.3067 199° South 179 206 3,000 -33 Level Indianapolis Center
Wed 04:53:32 AM 39.6294 -83.3317 203° Southwest 180 207 2,900 -98 Descending Indianapolis Center
Wed 04:55:00 AM 39.5642 -83.3548 195° South  Level FlightAware Approximate
Wed 05:02:00 AM 39.2571 -83.4881 201° Southwest  Level FlightAware Approximate
Wed 05:03:00 AM 39.2142 -83.5096 201° Southwest  Level FlightAware Approximate
Wed 05:04:00 AM 39.1833 -83.5333 218° Southwest  Level FlightAware Approximate
Wed 05:05:00 AM 39.1888 -83.5388 218° Southwest  Level Estimated
Wed 05:06:00 AM 39.1833 -83.5333 218° Southwest  Level FlightAware Approximate
Wed 05:07:00 AM 39.1888 -83.5388 218° Southwest  Level Estimated
Wed 05:08:00 AM 39.1833 -83.5333 218° Southwest  Level FlightAware Approximate
Wed 05:09:00 AM 39.1888 -83.5388 218° Southwest  Level Estimated
Wed 05:10:00 AM 39.1833 -83.5333 218° Southwest  Level FlightAware Approximate
Wed 05:11:00 AM 39.1888 -83.5388 218° Southwest  Level Estimated
Wed 05:12:00 AM 39.1833 -83.5333 218° Southwest  Level FlightAware Approximate
Wed 05:13:00 AM 39.1888 -83.5388 218° Southwest  Level Estimated
Wed 05:14:00 AM 39.1833 -83.5333 218° Southwest  Level FlightAware Approximate
Wed 05:15:00 AM 39.1888 -83.5388 218° Southwest  Level Estimated
Wed 05:16:00 AM 39.1833 -83.5333 218° Southwest  Level FlightAware Approximate
Wed 05:17:00 AM 39.1888 -83.5388 218° Southwest  Level Estimated
Wed 05:18:00 AM 39.1833 -83.5333 218° Southwest  Level FlightAware Approximate
Wed 05:19:00 AM 39.1888 -83.5388 218° Southwest  Level Estimated
Wed 05:20:00 AM 39.1833 -83.5333 218° Southwest  Level FlightAware Approximate
Wed 05:21:00 AM 39.1888 -83.5388 218° Southwest  Level Estimated

Login

Don't have an account? Register now (free) for customized features, flight alerts, and more!